Bemidji, MN

7:02 PM CST on January 28, 2015 (GMT -0600)
Bemidji-Beltrami County | Change Station
CLOSE
Current Station
Airport
Location: Bemidji,
Elevation: 1378 ft
Nearby Weather Stations
Active Advisory: Special Statement Active Notice: Record Report

Elev 1378 ft 47.51 °N, 94.93 °W | Updated 9 minutes ago

Fog
Fog
32 °F
Feels Like 32 °F
N
0
Wind Variable Wind from North

Today
High -- | Low -- °F
--% Chance of Precip.
Yesterday
High -- | Low -- °F
Precip. -- in
7:50 AM 5:14 PM
Waxing Gibbous, 69% visible
Pressure 29.81 in
Visibility 1.2 miles
Clouds Overcast 200 ft
Dew Point 31 °F
Humidity 99%
Rainfall 0.00 in
Snow Depth Not available.
UV 0 out of 12
Pollen .10 out of 12
Air Quality Not available.
Flu Activity Not available.
METAR KBJI 290053Z AUTO 00000KT 1 1/4SM -RA OVC002 00/00 A2981 RMK AO2 T10031005

More Conditions Fewer Conditions

Pressure 29.81 in
Visibility 1.2 miles
Clouds Overcast 200 ft
Dew Point 31 °F
Humidity 99%
Rainfall 0.00 in
Snow Depth Not available.
UV 0 out of 12
Pollen .10 out of 12
Air Quality Not available.
Flu Activity Not available.
METAR KBJI 290053Z AUTO 00000KT 1 1/4SM -RA OVC002 00/00 A2981 RMK AO2 T10031005

More Conditions Fewer Conditions

10-Day Weather Forecast

Almanac

Astronomy

Jan. 28, 2015 Rise Set
Actual Time
Civil Twilight
Nautical Twilight
Astronomical Twilight
Moon
Length of Visible Light
Length of Day
Tomorrow will be .
, % of the Moon is Illuminated

Today's Extremes

State Highs State Lows

Community

WunderPhotos

Upload Photos

1,791,312 photos uploaded!

WunderBlogs® & News

Nearby

Air Quality

  Air Quality AQ Index Pollutant
Not available.

Snow Depth

Station Depth Elevation

Earthquake Activity

City Distance Mag. Time & Date
Minimum magnitude displayed is 2.5.

Coastal Water Temperatures

Place Temperature

Nearby Weather Stations